Have a Safe July 4th! 

Flight Track Log - Related Links

Times and Time Zones

All times are in EDT time to prevent confusion due to time zone crossing. See the UAL1053 flight status page for this flight to view local times or setup timezone preferences in your user account.

Time Position Orientation Groundspeed Altitude Reporting Facility
EDT Latitude Longitude Course Direction KTS MPH feet Rate Location/Type
Thu 07:52:55 PM 40.6787 -74.1775 90° East 163 188 300  Level FlightAware ADS-B
Thu 07:53:01 PM 40.6746 -74.1801 206° Southwest 160 184 600 2,727 Climbing FlightAware ADS-B
Thu 07:53:06 PM 40.6711 -74.1816 198° South 156 180 800 2,182 Climbing FlightAware ADS-B
Thu 07:53:23 PM 40.6572 -74.1834 186° South 157 181 1,400 2,000 Climbing FlightAware ADS-B
Thu 07:53:30 PM 40.6529 -74.1849 195° South 183 211 1,600 2,400 Climbing FlightAware ADS-B
Thu 07:53:43 PM 40.6444 -74.1954 223° Southwest 191 220 2,200 3,659 Climbing FlightAware ADS-B
Thu 07:54:11 PM 40.6324 -74.2258 243° Southwest 203 234 4,100 4,059 Climbing FlightAware ADS-B
Thu 07:54:17 PM 40.6312 -74.2351 260° West 211 243 4,500 3,429 Climbing FlightAware ADS-B
Thu 07:54:18 PM 40.6312 -74.2344 90° East 216 249 4,500 2,000 Level FlightAware ADS-B
Thu 07:54:35 PM 40.6373 -74.2574 289° West 256 295 5,100 2,211 Climbing FlightAware ADS-B
Thu 07:54:37 PM 40.6383 -74.2600 297° West 242 278 5,200 2,842 Climbing FlightAware ADS-B
Thu 07:54:54 PM 40.6469 -74.2856 294° West 268 308 6,000 3,455 Climbing FlightAware ADS-B
Thu 07:55:10 PM 40.6553 -74.3092 295° West 268 308 7,100 3,938 Climbing FlightAware ADS-B
Thu 07:55:26 PM 40.6634 -74.3332 294° West 271 312 8,100 3,871 Climbing FlightAware ADS-B
Thu 07:55:41 PM 40.6713 -74.3548 296° West 273 314 9,100 3,574 Climbing FlightAware ADS-B
Thu 07:56:13 PM 40.6875 -74.4049 293° West 284 327 10,900 3,387 Climbing FlightAware ADS-B
Thu 07:56:43 PM 40.7031 -74.4535 293° West 295 339 12,600 3,306 Climbing FlightAware ADS-B
Thu 07:57:02 PM 40.7134 -74.4854 293° West 299 344 13,600 3,333 Climbing FlightAware ADS-B
Thu 07:57:10 PM 40.7197 -74.4974 305° West 310 357 14,100 3,231 Climbing FlightAware ADS-B
Thu 07:57:15 PM 40.7245 -74.5050 310° West 315 362 14,300 3,273 Climbing FlightAware ADS-B
Thu 07:57:21 PM 40.7312 -74.5129 318° Northwest 317 365 14,700 2,667 Climbing FlightAware ADS-B
Thu 07:57:51 PM 40.7668 -74.5482 323° Northwest 328 377 15,900 1,742 Climbing FlightAware ADS-B
Thu 07:58:23 PM 40.8062 -74.5904 321° Northwest 355 409 16,500 774 Climbing FlightAware ADS-B
Thu 07:58:53 PM 40.8458 -74.6307 322° Northwest 363 418 16,700 279 Climbing FlightAware ADS-B
Thu 07:59:06 PM 40.8625 -74.6488 321° Northwest 360 414 16,700 353 Level FlightAware ADS-B
Thu 07:59:10 PM 40.8675 -74.6542 321° Northwest 357 411 16,800  Climbing FlightAware ADS-B
Thu 07:59:18 PM 40.8743 -74.6686 302° West 351 404 16,700 -429 Descending FlightAware ADS-B
Thu 07:59:24 PM 40.8781 -74.6788 296° West 345 397 16,700  Level FlightAware ADS-B
Thu 07:59:29 PM 40.8799 -74.6889 283° West 344 396 16,700  Level FlightAware ADS-B
Thu 07:59:35 PM 40.8810 -74.7016 277° West 340 391 16,700  Level FlightAware ADS-B
Thu 07:59:49 PM 40.8822 -74.7314 273° West 340 391 16,700  Level FlightAware ADS-B
Thu 08:00:19 PM 40.8867 -74.7932 276° West 341 392 16,700  Level FlightAware ADS-B
Thu 08:00:50 PM 40.8925 -74.8598 277° West 343 395 16,700 677 Level FlightAware ADS-B
Thu 08:01:21 PM 40.8979 -74.9226 277° West 350 403 17,400 2,129 Climbing FlightAware ADS-B
Thu 08:01:52 PM 40.9036 -74.9876 277° West 357 411 18,900 2,129 Climbing FlightAware ADS-B
Thu 08:02:23 PM 40.9093 -75.0565 276° West 365 420 19,600 1,179 Climbing FlightAware ADS-B
Thu 08:02:48 PM 40.9139 -75.1149 276° West 367 422 20,000 649 Climbing FlightAware ADS-B
Thu 08:03:00 PM 40.9143 -75.1379 271° West 365 420 20,000  Level FlightAware ADS-B
Thu 08:03:12 PM 40.9134 -75.1641 267° West 362 417 20,000  Level FlightAware ADS-B
Thu 08:03:18 PM 40.9121 -75.1779 263° West 361 415 20,000  Level FlightAware ADS-B
Thu 08:03:29 PM 40.9087 -75.2010 259° West 359 413 20,000  Level FlightAware ADS-B
Thu 08:04:00 PM 40.8951 -75.2678 255° West 357 411 20,000  Level FlightAware ADS-B
Thu 08:04:30 PM 40.8826 -75.3293 255° West 356 410 20,000  Level FlightAware ADS-B
Thu 08:05:00 PM 40.8696 -75.3931 255° West 370 426 20,000  Level FlightAware ADS-B
Thu 08:05:31 PM 40.8535 -75.4628 253° West 393 452 20,000 98 Level FlightAware ADS-B
Thu 08:06:01 PM 40.8373 -75.5314 253° West 394 453 20,100 632 Climbing FlightAware ADS-B
Thu 08:06:09 PM 40.8332 -75.5488 253° West 396 456 20,400 1,875 Climbing FlightAware ADS-B
Thu 08:06:17 PM 40.8295 -75.5685 256° West 399 459 20,600 2,000 Climbing FlightAware ADS-B
Thu 08:06:27 PM 40.8268 -75.5916 261° West 403 464 21,000 2,400 Climbing FlightAware ADS-B
Thu 08:06:37 PM 40.8256 -75.6158 266° West 405 466 21,400 2,100 Climbing FlightAware ADS-B
Thu 08:07:07 PM 40.8288 -75.6956 273° West 417 480 22,400 2,100 Climbing FlightAware ADS-B
Thu 08:07:37 PM 40.8324 -75.7722 274° West 423 487 23,500 2,066 Climbing FlightAware ADS-B
Thu 08:08:08 PM 40.8362 -75.8473 274° West 429 494 24,500 1,645 Climbing FlightAware ADS-B
Thu 08:08:39 PM 40.8398 -75.9293 273° West 435 501 25,200 1,524 Climbing FlightAware ADS-B
Thu 08:09:11 PM 40.8439 -76.0138 274° West 442 509 26,100 1,905 Climbing FlightAware ADS-B
Thu 08:09:42 PM 40.8476 -76.0971 273° West 440 506 27,200 1,869 Climbing FlightAware ADS-B
Thu 08:10:12 PM 40.8512 -76.1775 273° West 445 512 28,000 1,475 Climbing FlightAware ADS-B
Thu 08:10:43 PM 40.8548 -76.2632 273° West 451 519 28,700 1,574 Climbing FlightAware ADS-B
Thu 08:11:13 PM 40.8583 -76.3445 273° West 449 517 29,600 1,300 Climbing FlightAware ADS-B
Thu 08:11:43 PM 40.8617 -76.4299 273° West 445 512 30,000 375 Climbing FlightAware ADS-B
Thu 08:12:17 PM 40.8656 -76.5193 273° West 446 513 30,000  Level FlightAware ADS-B
Thu 08:12:51 PM 40.8697 -76.6144 273° West 446 513 30,000  Level FlightAware ADS-B
Thu 08:13:28 PM 40.8771 -76.7103 276° West 447 514 30,000  Level FlightAware ADS-B
Thu 08:14:17 PM 40.8989 -76.5697 78° East 450 518 30,000  Level FlightAware ADS-B
Thu 08:15:43 PM 40.8650 -76.4920 120° Southeast 30,000  Level FlightAware ADS-B
Thu 08:18:38 PM 42.0000 -79.0930 301° West 451 519 30,000  Level FlightAware ADS-B
Thu 08:19:08 PM 42.0000 -78.2230 90° East 451 519 30,000  Level FlightAware ADS-B
Thu 08:19:53 PM 42.0000 -76.9380 90° East 453 521 30,000  Level FlightAware ADS-B
Thu 08:20:38 PM 42.0160 -77.0510 281° West 453 521 30,000  Level FlightAware ADS-B
Thu 08:21:18 PM 42.0300 -77.1450 281° West 453 521 30,000  Level FlightAware ADS-B
Thu 08:21:58 PM 42.0430 -77.2390 281° West 453 521 30,000  Level FlightAware ADS-B
Thu 08:22:38 PM 42.0570 -77.3340 281° West 453 521 30,000  Level FlightAware ADS-B
Thu 08:23:28 PM 42.0000 -74.2830 90° East 448 516 30,000  Level FlightAware ADS-B
Thu 08:24:03 PM 42.0070 -74.3680 276° West 448 516 30,000  Level FlightAware ADS-B
Thu 08:24:53 PM 42.0160 -74.4860 276° West 448 516 30,000  Level FlightAware ADS-B
Thu 08:25:33 PM 42.0230 -74.5800 276° West 448 516 30,000  Level FlightAware ADS-B
Thu 08:26:13 PM 42.0310 -74.6740 277° West 448 516 30,000  Level FlightAware ADS-B
Thu 08:26:53 PM 42.0380 -74.7690 276° West 448 516 30,000  Level FlightAware ADS-B
Thu 08:27:38 PM 41.1700 -78.9900 256° West 440 506 30,000  Level FlightAware ADS-B
Thu 08:28:23 PM 41.1820 -79.1140 277° West 442 509 30,000 -141 Level FlightAware ADS-B
Thu 08:29:03 PM 41.1920 -79.2180 277° West 444 511 29,800 -675 Descending FlightAware ADS-B
Thu 08:29:43 PM 41.2020 -79.3230 277° West 441 507 29,100 -1,412 Descending FlightAware ADS-B
Thu 08:30:28 PM 41.2140 -79.4530 277° West 462 532 27,800 -1,867 Descending FlightAware ADS-B
Thu 08:31:13 PM 41.2250 -79.5730 277° West 474 545 26,300 -2,329 Descending FlightAware ADS-B
Thu 08:31:53 PM 41.2360 -79.6930 277° West 446 513 24,500 -2,325 Descending FlightAware ADS-B
Thu 08:32:33 PM 41.2450 -79.7950 277° West 417 480 23,200 -2,259 Descending FlightAware ADS-B
Thu 08:33:18 PM 41.2540 -79.9030 276° West 400 460 21,300 -2,400 Descending FlightAware ADS-B
Thu 08:33:58 PM 41.2630 -80.0020 277° West 383 441 19,800 -1,636 Descending FlightAware ADS-B
Thu 08:35:08 PM 41.2760 -80.1500 277° West 368 423 18,300 -818 Descending FlightAware ADS-B
Thu 08:35:48 PM 41.2820 -80.2260 276° West 368 423 18,300 -2,175 Level FlightAware ADS-B
Thu 08:36:28 PM 41.2980 -80.3290 282° West 368 423 15,400 -3,106 Descending FlightAware ADS-B
Thu 08:37:13 PM 41.3150 -80.4280 283° West 336 387 13,900 -1,000 Descending FlightAware ADS-B
Thu 08:37:58 PM 41.3250 -80.5090 279° West 336 387 13,900  Level FlightAware ADS-B
Thu 08:38:38 PM 41.3350 -80.5780 281° West 336 387 13,900 -1,527 Level FlightAware ADS-B
Thu 08:39:48 PM 41.3580 -80.7430 281° West 325 374 11,100 -1,776 Descending FlightAware ADS-B
Thu 08:40:43 PM 41.3730 -80.8480 281° West 325 374 10,200 -568 Descending FlightAware ADS-B
Thu 08:41:23 PM 41.3830 -80.9240 280° West 319 367 10,200  Level FlightAware ADS-B
Thu 08:42:08 PM 41.3950 -81.0140 280° West 318 366 10,200  Level FlightAware ADS-B
Thu 08:42:48 PM 41.4050 -81.0870 280° West 289 333 10,200  Level FlightAware ADS-B
Thu 08:43:33 PM 41.4150 -81.1650 280° West 276 318 10,200  Level FlightAware ADS-B
Thu 08:44:13 PM 41.4240 -81.2300 280° West 260 299 10,200 -450 Level FlightAware ADS-B
Thu 08:44:53 PM 41.4320 -81.2920 280° West 260 299 9,600 -1,371 Descending FlightAware ADS-B
Thu 08:45:23 PM 41.4380 -81.3410 279° West 269 310 8,600 -2,000 Descending FlightAware ADS-B
Thu 08:45:38 PM 41.4420 -81.3660 282° West 268 308 8,100 -1,800 Descending FlightAware ADS-B
Thu 08:46:03 PM 41.4470 -81.4050 280° West 266 306 7,400 -1,300 Descending FlightAware ADS-B
Thu 08:46:38 PM 41.4540 -81.4600 280° West 246 283 6,800 -1,000 Descending FlightAware ADS-B
Thu 08:47:03 PM 41.4590 -81.4970 280° West 228 262 6,400 -1,418 Descending FlightAware ADS-B
Thu 08:47:33 PM 41.4640 -81.5390 279° West 221 254 5,500 -1,700 Descending FlightAware ADS-B
Thu 08:48:03 PM 41.4690 -81.5790 279° West 215 247 4,700 -1,418 Descending FlightAware ADS-B
Thu 08:48:28 PM 41.4730 -81.6100 280° West 199 229 4,200 -545 Descending FlightAware ADS-B
Thu 08:48:58 PM 41.4790 -81.6460 283° West 197 227 4,200  Level FlightAware ADS-B
Thu 08:49:23 PM 41.4830 -81.6740 281° West 188 216 4,200 -545 Level FlightAware ADS-B
Thu 08:49:53 PM 41.4830 -81.7060 270° West 162 186 3,700 -1,000 Descending FlightAware ADS-B
Thu 08:50:23 PM 41.4780 -81.7350 257° West 155 178 3,200 -982 Descending FlightAware ADS-B
Thu 08:50:48 PM 41.4720 -81.7580 251° West 156 180 2,800 -982 Descending FlightAware ADS-B
Thu 08:51:18 PM 41.4590 -81.7800 232° Southwest 156 180 2,300 -982 Descending FlightAware ADS-B
Thu 08:51:43 PM 41.4470 -81.7960 225° Southwest 154 177 1,900 -960 Descending FlightAware ADS-B
Thu 08:52:08 PM 41.4330 -81.8140 224° Southwest 148 170 1,500 -800 Descending FlightAware ADS-B
Thu 08:52:43 PM 41.4180 -81.8370 229° Southwest 153 176 1,100 -400 Descending FlightAware ADS-B
Thu 08:53:08 PM 41.4080 -81.8530 230° Southwest 153 176 1,100  Level FlightAware ADS-B

Login

Don't have an account? Register now (free) for customized features, flight alerts, and more!